createdAt,value
2023-01-13T00:00:32.848Z,98.24
2023-01-13T00:02:59.192Z,98.21
2023-01-13T00:05:26.707Z,98.03
2023-01-13T00:07:53.271Z,98.15
2023-01-13T00:10:19.657Z,97.97
2023-01-13T00:12:46.020Z,98.08
2023-01-13T00:15:13.284Z,98.16
2023-01-13T00:17:39.844Z,97.55
2023-01-13T00:20:07.389Z,97.50
2023-01-13T00:22:35.453Z,97.48
2023-01-13T00:25:04.130Z,97.78
2023-01-13T00:27:30.707Z,98.07
2023-01-13T00:29:57.029Z,98.81
2023-01-13T00:32:23.435Z,99.67
2023-01-13T00:34:50.130Z,100.00
2023-01-13T00:37:16.706Z,100.00
2023-01-13T00:39:43.037Z,100.00
2023-01-13T00:42:28.080Z,100.00
2023-01-13T00:44:54.425Z,100.00
2023-01-13T00:47:20.792Z,100.00
2023-01-13T00:49:47.196Z,100.00
2023-01-13T00:52:13.508Z,100.00
2023-01-13T00:54:39.917Z,100.00
2023-01-13T00:57:06.338Z,100.00
2023-01-13T00:59:32.632Z,100.00
2023-01-13T01:01:59.119Z,100.00
2023-01-13T01:04:25.661Z,100.00
2023-01-13T01:06:51.980Z,100.00
2023-01-13T01:09:18.927Z,100.00
2023-01-13T01:11:45.257Z,100.00
2023-01-13T01:14:13.034Z,100.00
2023-01-13T01:16:41.441Z,100.00
2023-01-13T01:19:08.080Z,100.00
2023-01-13T01:21:35.006Z,100.00
2023-01-13T01:24:03.659Z,99.80
2023-01-13T01:26:30.900Z,98.54
2023-01-13T01:28:57.379Z,97.48
2023-01-13T01:31:26.717Z,96.60
2023-01-13T01:33:54.334Z,96.17
2023-01-13T01:36:22.549Z,95.43
2023-01-13T01:38:49.635Z,93.67
2023-01-13T01:41:22.787Z,92.94
2023-01-13T01:44:06.965Z,88.32
2023-01-13T01:46:42.184Z,86.64
2023-01-13T01:49:22.605Z,85.18
2023-01-13T01:52:10.627Z,84.10
2023-01-13T01:54:39.810Z,84.44
2023-01-13T01:57:09.239Z,84.40
2023-01-13T01:59:36.264Z,84.48
2023-01-13T02:02:03.123Z,84.50
2023-01-13T02:04:33.902Z,84.32
2023-01-13T02:07:02.095Z,84.39
2023-01-13T02:09:28.800Z,84.33
2023-01-13T02:12:13.797Z,84.19
2023-01-13T02:14:41.682Z,83.64
2023-01-13T02:17:36.161Z,83.28
2023-01-13T02:20:30.363Z,82.87
2023-01-13T02:22:59.528Z,82.50
2023-01-13T02:26:00.611Z,82.67
2023-01-13T02:29:08.932Z,82.69
2023-01-13T02:31:43.106Z,83.02
2023-01-13T02:34:35.753Z,83.15
2023-01-13T02:37:20.135Z,83.62
2023-01-13T02:39:57.198Z,84.02
2023-01-13T02:42:48.466Z,84.29
2023-01-13T02:45:25.227Z,84.00
2023-01-13T02:47:55.839Z,83.96
2023-01-13T02:50:32.141Z,84.06
2023-01-13T02:53:04.492Z,84.02
2023-01-13T02:55:34.341Z,83.79
2023-01-13T02:58:03.828Z,83.34
2023-01-13T03:00:31.159Z,82.82
2023-01-13T03:02:57.678Z,82.90
2023-01-13T03:05:25.178Z,82.69
2023-01-13T03:08:00.557Z,82.36
2023-01-13T03:10:56.200Z,81.87
2023-01-13T03:13:35.854Z,81.68
2023-01-13T03:16:34.595Z,80.69
2023-01-13T03:19:30.972Z,80.15
2023-01-13T03:22:11.484Z,79.82
2023-01-13T03:24:53.273Z,78.76
2023-01-13T03:27:30.080Z,78.68
2023-01-13T03:30:07.256Z,78.06
2023-01-13T03:32:44.488Z,77.53
2023-01-13T03:35:13.990Z,77.27
2023-01-13T03:37:52.721Z,76.94
2023-01-13T03:40:24.902Z,77.11
2023-01-13T03:43:33.382Z,77.03
2023-01-13T03:46:06.502Z,76.94
2023-01-13T03:48:36.103Z,76.80
2023-01-13T03:51:07.375Z,77.30
2023-01-13T03:53:46.935Z,76.63
2023-01-13T03:56:28.982Z,76.73
2023-01-13T03:58:57.875Z,76.42
2023-01-13T04:01:44.708Z,76.61
2023-01-13T04:04:19.957Z,76.87
2023-01-13T04:07:02.399Z,76.82
2023-01-13T04:09:53.089Z,76.36
2023-01-13T04:12:51.130Z,76.36
2023-01-13T04:15:20.640Z,76.55
2023-01-13T04:17:47.046Z,76.53
2023-01-13T04:20:13.879Z,76.26
2023-01-13T04:22:40.342Z,76.33
2023-01-13T04:25:07.389Z,76.31
2023-01-13T04:27:33.746Z,76.35
2023-01-13T04:30:00.189Z,76.45
2023-01-13T04:32:26.590Z,76.87
2023-01-13T04:34:52.925Z,76.50
2023-01-13T04:37:19.341Z,77.17
2023-01-13T04:39:46.562Z,76.71
2023-01-13T04:42:13.047Z,76.64
2023-01-13T04:44:39.531Z,77.00
2023-01-13T04:47:05.937Z,77.86
2023-01-13T04:49:33.250Z,78.01
2023-01-13T04:51:59.678Z,78.10
2023-01-13T04:54:26.163Z,77.62
2023-01-13T04:56:52.557Z,77.90
2023-01-13T04:59:18.928Z,78.04
2023-01-13T05:01:45.378Z,78.46
2023-01-13T05:04:11.922Z,78.69
2023-01-13T05:06:38.256Z,78.88
2023-01-13T05:09:04.673Z,78.93
2023-01-13T05:11:49.632Z,79.10
2023-01-13T05:14:34.307Z,79.53
2023-01-13T05:17:00.950Z,80.02
2023-01-13T05:19:33.196Z,79.82
2023-01-13T05:22:18.644Z,79.90
2023-01-13T05:25:03.971Z,79.83
2023-01-13T05:27:31.442Z,79.90
2023-01-13T05:29:57.976Z,79.59
2023-01-13T05:32:25.202Z,79.88
2023-01-13T05:34:51.571Z,80.40
2023-01-13T05:37:18.031Z,80.48
2023-01-13T05:40:03.156Z,80.79
2023-01-13T05:42:48.032Z,80.85
2023-01-13T05:45:14.629Z,80.46
2023-01-13T05:47:41.053Z,80.15
2023-01-13T05:50:07.982Z,80.41
2023-01-13T05:52:34.538Z,80.10
2023-01-13T05:55:00.921Z,80.27
2023-01-13T05:57:27.306Z,80.17
2023-01-13T05:59:53.794Z,80.49
2023-01-13T06:02:20.191Z,80.00
2023-01-13T06:04:46.579Z,79.72
2023-01-13T06:07:12.996Z,79.74
2023-01-13T06:09:39.364Z,79.27
2023-01-13T06:12:06.060Z,79.53
2023-01-13T06:14:41.536Z,78.64
2023-01-13T06:17:09.632Z,78.79
2023-01-13T06:19:36.857Z,78.84
2023-01-13T06:22:18.571Z,78.61
2023-01-13T06:24:48.338Z,78.38
2023-01-13T06:27:16.862Z,78.12
2023-01-13T06:29:43.395Z,78.11
2023-01-13T06:32:17.610Z,78.08
2023-01-13T06:34:47.422Z,77.60
2023-01-13T06:37:17.416Z,77.75
2023-01-13T06:39:43.860Z,77.53
2023-01-13T06:42:28.893Z,77.50
2023-01-13T06:44:55.255Z,77.57
2023-01-13T06:47:22.410Z,78.10
2023-01-13T06:49:49.036Z,77.69
2023-01-13T06:52:15.386Z,77.75
2023-01-13T06:54:41.726Z,77.99
2023-01-13T06:57:08.152Z,79.13
2023-01-13T06:59:35.226Z,78.61
2023-01-13T07:02:02.700Z,78.77
2023-01-13T07:04:29.274Z,78.16
2023-01-13T07:06:55.851Z,77.75
2023-01-13T07:09:22.328Z,77.63
2023-01-13T07:11:48.764Z,77.43
2023-01-13T07:14:33.592Z,77.46
2023-01-13T07:17:00.007Z,77.56
2023-01-13T07:19:26.326Z,77.28
2023-01-13T07:21:53.099Z,77.21
2023-01-13T07:24:20.076Z,77.36
2023-01-13T07:26:46.436Z,77.21
2023-01-13T07:29:13.055Z,77.05
2023-01-13T07:31:39.932Z,76.99
2023-01-13T07:34:07.155Z,76.75
2023-01-13T07:36:33.730Z,76.23
2023-01-13T07:39:00.315Z,76.25
2023-01-13T07:41:45.490Z,76.17
2023-01-13T07:44:11.970Z,76.40
2023-01-13T07:46:39.324Z,76.19
2023-01-13T07:49:06.345Z,76.33
2023-01-13T07:51:37.221Z,76.35
2023-01-13T07:54:03.729Z,76.26
2023-01-13T07:56:30.111Z,76.13
2023-01-13T07:58:59.180Z,76.22
2023-01-13T08:01:27.717Z,76.38
2023-01-13T08:03:56.123Z,76.80
2023-01-13T08:06:22.660Z,76.63
2023-01-13T08:08:49.111Z,76.83
2023-01-13T08:11:15.497Z,77.04
2023-01-13T08:13:41.916Z,77.26
2023-01-13T08:16:11.335Z,77.40
2023-01-13T08:18:38.391Z,77.69
2023-01-13T08:21:11.104Z,77.77
2023-01-13T08:23:37.603Z,77.77
2023-01-13T08:26:09.506Z,77.83
2023-01-13T08:28:36.406Z,77.67
2023-01-13T08:31:05.315Z,78.06
2023-01-13T08:33:32.552Z,77.85
2023-01-13T08:36:02.175Z,78.16
2023-01-13T08:38:28.582Z,78.28
2023-01-13T08:40:54.988Z,78.03
2023-01-13T08:43:21.426Z,78.17
2023-01-13T08:45:57.097Z,78.50
2023-01-13T08:48:23.614Z,78.34
2023-01-13T08:50:49.941Z,78.15
2023-01-13T08:53:16.452Z,78.67
2023-01-13T08:55:42.951Z,78.33
2023-01-13T08:58:15.623Z,78.10
2023-01-13T09:00:43.178Z,78.09
2023-01-13T09:03:09.704Z,78.04
2023-01-13T09:05:36.482Z,77.68
2023-01-13T09:08:03.097Z,77.64
2023-01-13T09:10:29.644Z,77.48
2023-01-13T09:13:14.557Z,77.39
2023-01-13T09:15:43.988Z,77.22
2023-01-13T09:18:10.744Z,77.02
2023-01-13T09:20:37.742Z,76.85
2023-01-13T09:23:05.361Z,76.47
2023-01-13T09:25:32.462Z,76.01
2023-01-13T09:27:58.843Z,75.73
2023-01-13T09:30:25.267Z,75.52
2023-01-13T09:33:11.730Z,75.19
2023-01-13T09:35:38.077Z,74.78
2023-01-13T09:38:05.995Z,75.10
2023-01-13T09:40:32.457Z,75.00
2023-01-13T09:43:25.268Z,75.03
2023-01-13T09:46:01.862Z,74.36
2023-01-13T09:48:29.933Z,74.19
2023-01-13T09:51:24.504Z,74.15
2023-01-13T09:53:57.658Z,73.69
2023-01-13T09:56:25.249Z,73.17
2023-01-13T09:58:52.174Z,73.02
2023-01-13T10:01:26.443Z,72.91
2023-01-13T10:03:53.637Z,72.83
2023-01-13T10:06:31.635Z,72.93
2023-01-13T10:08:58.369Z,72.88
2023-01-13T10:11:48.125Z,72.57
2023-01-13T10:14:28.224Z,72.63
2023-01-13T10:17:03.530Z,72.24
2023-01-13T10:19:44.596Z,72.11
2023-01-13T10:22:38.787Z,72.07
2023-01-13T10:25:20.832Z,72.03
2023-01-13T10:27:50.279Z,71.95
2023-01-13T10:30:25.982Z,71.80
2023-01-13T10:32:56.807Z,71.52
2023-01-13T10:35:50.817Z,71.32
2023-01-13T10:38:20.071Z,71.30
2023-01-13T10:40:52.267Z,71.31
2023-01-13T10:43:18.628Z,71.28
2023-01-13T10:46:12.767Z,71.20
2023-01-13T10:48:59.790Z,71.35
2023-01-13T10:51:38.403Z,71.52
2023-01-13T10:54:11.560Z,71.04
2023-01-13T10:56:39.248Z,70.98
2023-01-13T10:59:15.748Z,70.86
2023-01-13T11:01:55.012Z,70.89
2023-01-13T11:04:31.530Z,70.75
2023-01-13T11:06:59.288Z,71.01
2023-01-13T11:09:27.569Z,70.85
2023-01-13T11:11:56.888Z,71.12
2023-01-13T11:14:42.924Z,70.78
2023-01-13T11:17:33.285Z,70.74
2023-01-13T11:20:41.122Z,70.71
2023-01-13T11:23:17.313Z,70.46
2023-01-13T11:25:49.026Z,70.09
2023-01-13T11:28:43.454Z,69.86
2023-01-13T11:31:09.860Z,69.98
2023-01-13T11:33:48.261Z,69.39
2023-01-13T11:36:23.328Z,69.54
2023-01-13T11:38:53.782Z,69.30
2023-01-13T11:41:44.311Z,68.31
2023-01-13T11:44:17.990Z,68.09
2023-01-13T11:46:44.788Z,68.28
2023-01-13T11:49:32.686Z,68.50
2023-01-13T11:52:21.608Z,68.35
2023-01-13T11:55:06.897Z,68.16
2023-01-13T11:57:47.067Z,67.50
2023-01-13T12:00:36.034Z,67.47
2023-01-13T12:03:31.903Z,67.34
2023-01-13T12:06:26.362Z,67.50
2023-01-13T12:08:59.904Z,67.40
2023-01-13T12:12:09.131Z,66.87
2023-01-13T12:14:54.148Z,66.96
2023-01-13T12:17:38.259Z,66.49
2023-01-13T12:20:19.692Z,66.46
2023-01-13T12:22:47.860Z,66.44
2023-01-13T12:25:30.065Z,66.41
2023-01-13T12:28:04.735Z,66.28
2023-01-13T12:30:51.860Z,65.88
2023-01-13T12:33:27.644Z,66.24
2023-01-13T12:36:04.927Z,66.42
2023-01-13T12:38:37.353Z,66.52
2023-01-13T12:41:16.729Z,66.58
2023-01-13T12:44:06.916Z,67.00
2023-01-13T12:46:34.567Z,67.44
2023-01-13T12:49:06.512Z,67.34
2023-01-13T12:51:36.570Z,67.58
2023-01-13T12:54:30.954Z,68.03
2023-01-13T12:56:58.980Z,68.27
2023-01-13T12:59:25.403Z,68.78
2023-01-13T13:02:11.974Z,69.49
2023-01-13T13:05:13.990Z,69.81
2023-01-13T13:07:45.451Z,70.79
2023-01-13T13:10:31.664Z,71.57
2023-01-13T13:13:19.386Z,72.94
2023-01-13T13:15:51.204Z,74.29
2023-01-13T13:18:17.574Z,75.36
2023-01-13T13:21:14.241Z,77.78
2023-01-13T13:23:48.194Z,80.21
2023-01-13T13:26:46.680Z,81.82
2023-01-13T13:29:47.578Z,83.07
2023-01-13T13:32:45.611Z,83.91
2023-01-13T13:35:31.122Z,84.44
2023-01-13T13:38:37.320Z,84.65
2023-01-13T13:41:41.449Z,85.63
2023-01-13T13:44:35.740Z,86.21
2023-01-13T13:47:04.506Z,86.41
2023-01-13T13:49:39.146Z,86.70
2023-01-13T13:52:10.845Z,87.15
2023-01-13T13:54:41.055Z,87.34
2023-01-13T13:57:23.300Z,88.26
2023-01-13T13:59:57.626Z,88.74
2023-01-13T14:02:29.025Z,89.00
2023-01-13T14:05:29.424Z,89.31
2023-01-13T14:08:16.492Z,89.41
2023-01-13T14:10:45.236Z,88.91
2023-01-13T14:13:17.665Z,89.60
2023-01-13T14:15:44.872Z,89.47
2023-01-13T14:18:14.702Z,89.03
2023-01-13T14:20:42.673Z,89.10
2023-01-13T14:23:18.272Z,89.08
2023-01-13T14:25:51.037Z,89.13
2023-01-13T14:28:29.962Z,89.09
2023-01-13T14:30:57.225Z,89.14
2023-01-13T14:33:34.143Z,89.57
2023-01-13T14:36:27.182Z,89.82
2023-01-13T14:39:02.601Z,89.55
2023-01-13T14:41:43.821Z,89.84
2023-01-13T14:44:31.360Z,89.40
2023-01-13T14:47:00.897Z,89.17
2023-01-13T14:49:29.949Z,88.85
2023-01-13T14:52:20.245Z,88.80
2023-01-13T14:55:14.481Z,88.36
2023-01-13T14:57:41.784Z,87.82
2023-01-13T15:00:13.995Z,87.19
2023-01-13T15:02:53.421Z,87.50
2023-01-13T15:05:19.932Z,87.34
2023-01-13T15:08:18.150Z,87.09
2023-01-13T15:10:55.068Z,87.40
2023-01-13T15:13:36.099Z,87.61
2023-01-13T15:16:06.070Z,87.75
2023-01-13T15:18:33.114Z,87.80
2023-01-13T15:20:59.577Z,87.88
2023-01-13T15:23:26.055Z,88.25
2023-01-13T15:25:52.409Z,87.92
2023-01-13T15:28:20.809Z,88.34
2023-01-13T15:30:48.797Z,88.80
2023-01-13T15:33:16.202Z,89.66
2023-01-13T15:35:46.020Z,90.29
2023-01-13T15:38:15.176Z,91.05
2023-01-13T15:40:42.293Z,91.41
2023-01-13T15:43:33.934Z,91.35
2023-01-13T15:46:20.404Z,91.11
2023-01-13T15:48:46.861Z,90.94
2023-01-13T15:51:21.187Z,90.47
2023-01-13T15:53:47.648Z,90.17
2023-01-13T15:56:24.547Z,90.03
2023-01-13T15:58:53.404Z,89.50
2023-01-13T16:01:20.147Z,89.77
2023-01-13T16:03:46.619Z,89.62
2023-01-13T16:06:19.146Z,89.97
2023-01-13T16:08:45.653Z,90.62
2023-01-13T16:11:12.599Z,91.23
2023-01-13T16:13:39.094Z,92.26
2023-01-13T16:16:22.112Z,92.92
2023-01-13T16:18:48.953Z,94.33
2023-01-13T16:21:16.078Z,95.32
2023-01-13T16:23:42.626Z,95.95
2023-01-13T16:26:27.087Z,96.35
2023-01-13T16:28:55.387Z,97.20
2023-01-13T16:31:31.857Z,97.68
2023-01-13T16:34:00.134Z,97.83
2023-01-13T16:36:26.688Z,98.27
2023-01-13T16:38:53.877Z,99.13
2023-01-13T16:41:21.753Z,99.30
2023-01-13T16:43:49.010Z,99.74
2023-01-13T16:46:19.163Z,100.00
2023-01-13T16:48:46.121Z,99.85
2023-01-13T16:51:12.623Z,100.00
2023-01-13T16:53:38.995Z,100.00
2023-01-13T16:56:17.047Z,100.00
2023-01-13T16:58:43.409Z,100.00
2023-01-13T17:01:18.886Z,100.00
2023-01-13T17:03:49.093Z,100.00
2023-01-13T17:06:17.315Z,100.00
2023-01-13T17:08:43.704Z,100.00
2023-01-13T17:11:10.635Z,99.83
2023-01-13T17:13:37.014Z,99.50
2023-01-13T17:16:03.452Z,98.40
2023-01-13T17:18:30.001Z,97.42
2023-01-13T17:20:58.777Z,96.55
2023-01-13T17:23:25.205Z,96.42
2023-01-13T17:25:54.665Z,95.73
2023-01-13T17:28:21.147Z,95.40
2023-01-13T17:30:47.802Z,94.70
2023-01-13T17:33:14.280Z,94.44
2023-01-13T17:35:40.714Z,93.75
2023-01-13T17:38:07.092Z,93.38
2023-01-13T17:40:33.589Z,93.20
2023-01-13T17:43:00.038Z,92.82
2023-01-13T17:45:26.335Z,92.60
2023-01-13T17:47:57.853Z,92.58
2023-01-13T17:50:24.627Z,92.09
2023-01-13T17:52:50.982Z,92.10
2023-01-13T17:55:17.470Z,92.16
2023-01-13T17:57:43.976Z,91.79
2023-01-13T18:00:12.355Z,91.64
2023-01-13T18:02:38.998Z,91.46
2023-01-13T18:05:05.802Z,91.36
2023-01-13T18:07:32.274Z,90.84
2023-01-13T18:09:59.009Z,90.77
2023-01-13T18:12:25.467Z,90.18
2023-01-13T18:14:51.996Z,89.55
2023-01-13T18:17:18.625Z,89.17
2023-01-13T18:20:03.804Z,87.82
2023-01-13T18:22:49.137Z,87.11
2023-01-13T18:25:33.886Z,87.09
2023-01-13T18:28:02.634Z,86.99
2023-01-13T18:30:28.990Z,87.01
2023-01-13T18:32:55.873Z,86.98
2023-01-13T18:35:22.385Z,86.56
2023-01-13T18:37:48.783Z,86.63
2023-01-13T18:40:15.347Z,86.25
2023-01-13T18:42:54.848Z,86.07
2023-01-13T18:45:25.117Z,85.11
2023-01-13T18:47:53.138Z,85.07
2023-01-13T18:50:19.845Z,84.64
2023-01-13T18:52:46.308Z,84.43
2023-01-13T18:55:12.867Z,84.13
2023-01-13T18:57:42.119Z,83.72
2023-01-13T19:00:12.420Z,83.29
2023-01-13T19:02:38.992Z,82.67
2023-01-13T19:05:05.871Z,82.57
2023-01-13T19:07:34.652Z,82.86
2023-01-13T19:10:01.181Z,82.17
2023-01-13T19:12:28.075Z,81.96
2023-01-13T19:14:56.129Z,81.48
2023-01-13T19:17:23.986Z,81.30
2023-01-13T19:19:53.818Z,81.24
2023-01-13T19:22:27.285Z,80.97
2023-01-13T19:24:53.854Z,80.97
2023-01-13T19:27:20.925Z,80.41
2023-01-13T19:29:52.570Z,80.63
2023-01-13T19:32:22.463Z,80.19
2023-01-13T19:34:50.636Z,79.95
2023-01-13T19:37:17.787Z,80.17
2023-01-13T19:39:44.384Z,80.05
2023-01-13T19:42:32.057Z,79.83
2023-01-13T19:45:30.784Z,79.79
2023-01-13T19:48:00.237Z,79.75
2023-01-13T19:50:26.644Z,79.29
2023-01-13T19:52:53.239Z,79.49
2023-01-13T19:55:19.893Z,79.47
2023-01-13T19:57:46.281Z,79.61
2023-01-13T20:00:15.417Z,79.85
2023-01-13T20:02:47.721Z,79.86
2023-01-13T20:05:18.282Z,80.74
2023-01-13T20:07:44.690Z,80.57
2023-01-13T20:10:11.314Z,79.96
2023-01-13T20:12:37.739Z,79.61
2023-01-13T20:15:05.908Z,79.43
2023-01-13T20:17:32.318Z,78.86
2023-01-13T20:20:01.362Z,78.49
2023-01-13T20:22:27.742Z,78.73
2023-01-13T20:24:55.177Z,78.41
2023-01-13T20:27:23.724Z,78.36
2023-01-13T20:29:50.637Z,77.63
2023-01-13T20:32:17.082Z,77.62
2023-01-13T20:34:43.424Z,77.34
2023-01-13T20:37:09.934Z,77.59
2023-01-13T20:39:36.271Z,77.46
2023-01-13T20:42:21.473Z,77.26
2023-01-13T20:44:47.877Z,77.59
2023-01-13T20:47:14.457Z,77.72
2023-01-13T20:49:41.174Z,77.44
2023-01-13T20:52:10.671Z,77.66
2023-01-13T20:54:38.107Z,77.53
2023-01-13T20:57:06.719Z,77.48
2023-01-13T20:59:33.805Z,77.80
2023-01-13T21:02:00.301Z,78.08
2023-01-13T21:04:26.851Z,78.02
2023-01-13T21:06:53.461Z,77.92
2023-01-13T21:09:20.615Z,77.97
2023-01-13T21:12:05.471Z,78.14
2023-01-13T21:14:50.449Z,78.36
2023-01-13T21:17:35.238Z,78.62
2023-01-13T21:20:04.201Z,78.43
2023-01-13T21:22:31.065Z,78.50
2023-01-13T21:24:58.597Z,78.87
2023-01-13T21:27:25.556Z,78.97
2023-01-13T21:29:51.929Z,78.69
2023-01-13T21:32:18.382Z,78.91
2023-01-13T21:34:44.838Z,79.10
2023-01-13T21:37:11.347Z,78.80
2023-01-13T21:39:37.793Z,79.31
2023-01-13T21:42:22.942Z,79.22
2023-01-13T21:45:07.767Z,79.22
2023-01-13T21:47:49.449Z,79.27
2023-01-13T21:50:20.123Z,79.13
2023-01-13T21:52:48.014Z,79.56
2023-01-13T21:55:24.585Z,79.42
2023-01-13T21:57:52.516Z,79.53
2023-01-13T22:00:20.729Z,79.69
2023-01-13T22:02:48.105Z,79.61
2023-01-13T22:05:16.670Z,80.01
2023-01-13T22:07:43.684Z,79.90
2023-01-13T22:10:13.136Z,79.94
2023-01-13T22:12:39.742Z,80.09
2023-01-13T22:15:07.218Z,80.20
2023-01-13T22:17:34.403Z,80.34
2023-01-13T22:20:01.463Z,80.26
2023-01-13T22:22:29.019Z,79.99
2023-01-13T22:24:55.484Z,80.05
2023-01-13T22:27:25.058Z,79.93
2023-01-13T22:29:52.783Z,79.77
2023-01-13T22:32:20.936Z,80.12
2023-01-13T22:34:47.468Z,80.06
2023-01-13T22:37:14.029Z,80.34
2023-01-13T22:39:40.390Z,80.28
2023-01-13T22:42:07.140Z,80.06
2023-01-13T22:44:34.010Z,80.17
2023-01-13T22:47:00.658Z,80.01
2023-01-13T22:49:27.204Z,80.28
2023-01-13T22:51:53.762Z,80.42
2023-01-13T22:54:20.194Z,80.24
2023-01-13T22:56:46.680Z,80.83
2023-01-13T22:59:14.511Z,80.20
2023-01-13T23:01:42.263Z,80.18
2023-01-13T23:04:13.081Z,80.50
2023-01-13T23:06:40.369Z,79.94
2023-01-13T23:09:07.502Z,80.21
2023-01-13T23:11:35.418Z,80.57
2023-01-13T23:14:06.938Z,80.45
2023-01-13T23:16:37.300Z,80.47
2023-01-13T23:19:05.314Z,80.40
2023-01-13T23:21:36.153Z,80.62
2023-01-13T23:24:03.753Z,80.61
2023-01-13T23:26:31.357Z,80.61
2023-01-13T23:28:59.215Z,80.60
2023-01-13T23:31:25.602Z,80.59
2023-01-13T23:33:52.023Z,80.58
2023-01-13T23:36:21.132Z,80.53
2023-01-13T23:38:48.049Z,80.42
2023-01-13T23:41:16.631Z,80.58
2023-01-13T23:43:42.983Z,80.79
2023-01-13T23:46:13.929Z,80.62
2023-01-13T23:48:40.471Z,80.81
2023-01-13T23:51:10.918Z,80.88
2023-01-13T23:53:40.434Z,80.50
2023-01-13T23:56:11.299Z,80.57
2023-01-13T23:58:37.837Z,80.64
